Bushmills, United Kingdom
Current Conditions -  °F | °C
As of 6:20 AM on Saturday 29 Nov 2014 (Local Time) from EGAE Reporting Station
Broken Clouds Broken Clouds  
Wind Chill: 48°   Ceiling: 1900
Heat Index: 48°   Visibility: 4mi
Dew Point: 48°   Wind: 2mph
Humidity: 100%   Direction: 170°S
Pressure: 29.8"   Gusts: NA
Location:  55.2°N, 6.52°W
Report Text: EGAE 290620Z 17002KT 7000 FEW010 BKN019 09/09 Q1009
Loading
Personal Weather Stations






























Interactive Weather Map New forecast layout! Learn more

10-Day Weather Forecast

Advertisements
Track Severe Weather on mobile